createdAt,value
2022-10-13T00:00:15.143Z,100497.91
2022-10-13T00:02:46.279Z,100478.25
2022-10-13T00:05:16.367Z,100470.50
2022-10-13T00:07:46.212Z,100517.44
2022-10-13T00:10:13.561Z,100496.22
2022-10-13T00:12:40.916Z,100499.00
2022-10-13T00:15:14.181Z,100506.09
2022-10-13T00:17:42.140Z,100477.16
2022-10-13T00:20:11.048Z,100472.03
2022-10-13T00:22:38.564Z,100530.41
2022-10-13T00:25:09.151Z,100514.28
2022-10-13T00:27:40.873Z,100514.28
2022-10-13T00:30:08.734Z,100482.59
2022-10-13T00:32:38.251Z,100506.69
2022-10-13T00:35:08.269Z,100527.78
2022-10-13T00:37:40.364Z,100507.38
2022-10-13T00:40:08.612Z,100490.34
2022-10-13T00:42:36.141Z,100503.72
2022-10-13T00:45:18.379Z,100531.88
2022-10-13T00:47:56.005Z,100515.88
2022-10-13T00:50:31.208Z,100512.97
2022-10-13T00:53:01.540Z,100520.13
2022-10-13T00:55:32.306Z,100503.09
2022-10-13T00:58:11.539Z,100506.31
2022-10-13T01:00:39.355Z,100527.91
2022-10-13T01:03:13.810Z,100515.78
2022-10-13T01:05:43.861Z,100516.94
2022-10-13T01:08:15.581Z,100510.03
2022-10-13T01:11:02.129Z,100535.06
2022-10-13T01:13:41.580Z,100520.41
2022-10-13T01:16:13.422Z,100537.03
2022-10-13T01:19:06.408Z,100519.59
2022-10-13T01:22:10.292Z,100517.41
2022-10-13T01:25:04.417Z,100511.28
2022-10-13T01:27:55.043Z,100545.47
2022-10-13T01:30:23.590Z,100528.09
2022-10-13T01:33:14.524Z,100547.19
2022-10-13T01:35:48.661Z,100547.97
2022-10-13T01:38:45.033Z,100542.72
2022-10-13T01:41:16.217Z,100524.81
2022-10-13T01:44:02.331Z,100560.91
2022-10-13T01:46:39.056Z,100534.22
2022-10-13T01:49:13.533Z,100536.94
2022-10-13T01:51:42.554Z,100535.16
2022-10-13T01:54:10.131Z,100528.22
2022-10-13T01:56:41.196Z,100532.53
2022-10-13T01:59:14.592Z,100550.97
2022-10-13T02:01:56.740Z,100550.03
2022-10-13T02:05:02.481Z,100559.38
2022-10-13T02:07:47.350Z,100554.97
2022-10-13T02:10:27.813Z,100515.09
2022-10-13T02:13:05.346Z,100516.88
2022-10-13T02:15:44.124Z,100535.84
2022-10-13T02:18:15.930Z,100525.50
2022-10-13T02:20:44.686Z,100511.69
2022-10-13T02:23:16.796Z,100539.19
2022-10-13T02:25:46.506Z,100551.59
2022-10-13T02:28:18.776Z,100571.19
2022-10-13T02:30:49.236Z,100542.13
2022-10-13T02:33:19.385Z,100536.03
2022-10-13T02:35:47.863Z,100555.34
2022-10-13T02:38:15.542Z,100567.09
2022-10-13T02:40:43.050Z,100551.97
2022-10-13T02:43:10.510Z,100566.69
2022-10-13T02:45:39.020Z,100550.78
2022-10-13T02:48:12.044Z,100564.59
2022-10-13T02:50:39.558Z,100535.81
2022-10-13T02:53:12.740Z,100536.25
2022-10-13T02:55:40.318Z,100527.56
2022-10-13T02:59:04.637Z,100573.56
2022-10-13T03:01:42.745Z,100564.59
2022-10-13T03:04:19.729Z,100565.63
2022-10-13T03:06:47.105Z,100573.72
2022-10-13T03:09:16.821Z,100558.63
2022-10-13T03:11:44.947Z,100538.97
2022-10-13T03:14:12.396Z,100547.72
2022-10-13T03:16:39.964Z,100562.34
2022-10-13T03:19:36.798Z,100576.72
2022-10-13T03:22:04.071Z,100563.97
2022-10-13T03:24:39.977Z,100557.47
2022-10-13T03:27:15.104Z,100573.66
2022-10-13T03:29:42.581Z,100546.91
2022-10-13T03:32:11.986Z,100563.22
2022-10-13T03:34:41.623Z,100578.44
2022-10-13T03:37:09.144Z,100579.63
2022-10-13T03:39:42.286Z,100587.31
2022-10-13T03:42:12.409Z,100588.16
2022-10-13T03:44:39.946Z,100562.50
2022-10-13T03:47:07.341Z,100590.78
2022-10-13T03:49:35.060Z,100594.41
2022-10-13T03:52:02.327Z,100591.03
2022-10-13T03:54:29.781Z,100628.06
2022-10-13T03:56:57.841Z,100594.19
2022-10-13T03:59:35.716Z,100573.31
2022-10-13T04:02:11.611Z,100598.22
2022-10-13T04:04:47.355Z,100592.91
2022-10-13T04:07:26.676Z,100595.53
2022-10-13T04:09:56.707Z,100575.06
2022-10-13T04:12:24.331Z,100569.88
2022-10-13T04:14:54.902Z,100593.16
2022-10-13T04:17:26.003Z,100589.34
2022-10-13T04:20:04.218Z,100593.88
2022-10-13T04:22:35.181Z,100600.91
2022-10-13T04:25:14.183Z,100585.50
2022-10-13T04:27:48.215Z,100618.19
2022-10-13T04:30:15.719Z,100608.56
2022-10-13T04:32:47.951Z,100600.22
2022-10-13T04:35:15.814Z,100619.16
2022-10-13T04:37:45.235Z,100619.78
2022-10-13T04:40:13.008Z,100622.06
2022-10-13T04:42:40.466Z,100610.13
2022-10-13T04:45:08.779Z,100629.75
2022-10-13T04:47:40.397Z,100620.63
2022-10-13T04:50:08.607Z,100616.38
2022-10-13T04:52:36.474Z,100639.84
2022-10-13T04:55:04.665Z,100632.13
2022-10-13T04:57:33.006Z,100628.63
2022-10-13T05:00:00.563Z,100624.22
2022-10-13T05:02:34.276Z,100602.50
2022-10-13T05:05:05.428Z,100630.47
2022-10-13T05:07:42.415Z,100622.66
2022-10-13T05:10:12.387Z,100667.75
2022-10-13T05:12:40.935Z,100648.84
2022-10-13T05:15:12.131Z,100640.53
2022-10-13T05:17:49.404Z,100640.41
2022-10-13T05:20:28.278Z,100671.13
2022-10-13T05:23:03.494Z,100635.13
2022-10-13T05:26:11.082Z,100648.84
2022-10-13T05:28:41.446Z,100663.31
2022-10-13T05:31:21.158Z,100658.53
2022-10-13T05:34:10.624Z,100633.66
2022-10-13T05:36:39.130Z,100617.31
2022-10-13T05:39:10.655Z,100631.38
2022-10-13T05:41:39.595Z,100627.66
2022-10-13T05:44:17.703Z,100633.81
2022-10-13T05:46:54.447Z,100657.75
2022-10-13T05:49:22.704Z,100621.81
2022-10-13T05:51:56.097Z,100628.34
2022-10-13T05:54:49.048Z,100639.72
2022-10-13T05:57:21.313Z,100650.22
2022-10-13T06:00:04.942Z,100664.25
2022-10-13T06:03:08.981Z,100654.31
2022-10-13T06:05:53.403Z,100661.97
2022-10-13T06:11:40.949Z,100652.75
2022-10-13T06:14:16.326Z,100675.38
2022-10-13T06:16:43.945Z,100638.19
2022-10-13T06:19:26.893Z,100633.94
2022-10-13T06:22:23.321Z,100662.00
2022-10-13T06:24:51.302Z,100657.09
2022-10-13T06:27:19.800Z,100666.75
2022-10-13T06:29:50.402Z,100637.88
2022-10-13T06:32:18.183Z,100668.47
2022-10-13T06:34:45.927Z,100684.66
2022-10-13T06:37:13.722Z,100669.72
2022-10-13T06:39:47.115Z,100663.06
2022-10-13T06:42:14.691Z,100672.47
2022-10-13T06:44:46.116Z,100667.47
2022-10-13T06:47:22.269Z,100658.59
2022-10-13T06:49:59.058Z,100674.78
2022-10-13T06:53:04.677Z,100677.34
2022-10-13T06:55:39.326Z,100673.69
2022-10-13T06:58:08.094Z,100667.97
2022-10-13T07:00:39.499Z,100651.81
2022-10-13T07:03:11.832Z,100675.97
2022-10-13T07:06:00.368Z,100682.63
2022-10-13T07:09:02.460Z,100708.38
2022-10-13T07:11:31.679Z,100712.91
2022-10-13T07:16:49.306Z,100694.34
2022-10-13T07:19:48.168Z,100665.34
2022-10-13T07:22:40.213Z,100694.34
2022-10-13T07:25:08.341Z,100718.13
2022-10-13T07:27:40.737Z,100705.75
2022-10-13T07:30:10.107Z,100655.84
2022-10-13T07:32:44.764Z,100684.00
2022-10-13T07:35:30.520Z,100657.72
2022-10-13T07:38:02.348Z,100688.75
2022-10-13T07:40:39.106Z,100658.31
2022-10-13T07:43:10.580Z,100690.00
2022-10-13T07:45:55.625Z,100653.59
2022-10-13T07:48:54.189Z,100694.81
2022-10-13T07:51:33.998Z,100685.31
2022-10-13T07:54:06.751Z,100671.25
2022-10-13T07:56:59.421Z,100700.59
2022-10-13T08:03:38.119Z,100682.50
2022-10-13T08:06:15.754Z,100688.03
2022-10-13T08:08:43.560Z,100674.56
2022-10-13T08:11:22.332Z,100687.25
2022-10-13T08:14:02.964Z,100675.59
2022-10-13T08:16:35.105Z,100662.81
2022-10-13T08:19:11.146Z,100667.25
2022-10-13T08:22:09.194Z,100677.41
2022-10-13T08:25:00.717Z,100691.41
2022-10-13T08:27:51.956Z,100706.88
2022-10-13T08:30:28.494Z,100685.88
2022-10-13T08:32:56.114Z,100706.69
2022-10-13T08:35:35.185Z,100726.13
2022-10-13T08:38:11.970Z,100715.16
2022-10-13T08:40:39.814Z,100738.44
2022-10-13T08:43:17.405Z,100719.44
2022-10-13T08:45:48.962Z,100725.66
2022-10-13T08:48:21.700Z,100705.63
2022-10-13T08:51:00.345Z,100718.28
2022-10-13T08:53:37.300Z,100709.34
2022-10-13T08:56:24.314Z,100716.88
2022-10-13T08:59:03.933Z,100704.38
2022-10-13T09:01:36.962Z,100699.00
2022-10-13T09:05:03.900Z,100719.00
2022-10-13T09:07:37.608Z,100706.03
2022-10-13T09:10:26.079Z,100711.06
2022-10-13T09:13:05.704Z,100728.38
2022-10-13T09:15:51.269Z,100693.59
2022-10-13T09:18:34.940Z,100699.53
2022-10-13T09:21:44.860Z,100720.69
2022-10-13T09:24:43.341Z,100689.44
2022-10-13T09:27:19.134Z,100677.97
2022-10-13T09:30:31.867Z,100721.19
2022-10-13T09:33:32.906Z,100679.72
2022-10-13T09:36:19.478Z,100734.38
2022-10-13T09:39:17.375Z,100696.28
2022-10-13T09:41:51.803Z,100692.59
2022-10-13T09:44:31.325Z,100683.75
2022-10-13T09:47:02.278Z,100686.06
2022-10-13T09:49:42.003Z,100722.31
2022-10-13T09:52:12.303Z,100716.13
2022-10-13T09:54:51.548Z,100716.00
2022-10-13T09:57:44.378Z,100718.00
2022-10-13T10:00:18.733Z,100709.13
2022-10-13T10:03:12.064Z,100717.97
2022-10-13T10:06:02.211Z,100719.28
2022-10-13T10:11:43.888Z,100686.91
2022-10-13T10:14:29.293Z,100685.38
2022-10-13T10:17:27.362Z,100712.66
2022-10-13T10:20:35.278Z,100706.22
2022-10-13T10:23:15.178Z,100678.00
2022-10-13T10:25:54.567Z,100705.69
2022-10-13T10:28:38.013Z,100705.69
2022-10-13T10:31:39.807Z,100689.69
2022-10-13T10:34:27.406Z,100712.75
2022-10-13T10:37:15.618Z,100698.56
2022-10-13T10:39:52.945Z,100697.09
2022-10-13T10:42:35.722Z,100705.94
2022-10-13T10:45:54.412Z,100692.31
2022-10-13T10:48:52.401Z,100696.50
2022-10-13T10:51:37.075Z,100682.47
2022-10-13T10:54:27.890Z,100718.81
2022-10-13T10:57:17.321Z,100714.81
2022-10-13T11:00:07.651Z,100675.44
2022-10-13T11:03:19.867Z,100717.28
2022-10-13T11:06:31.333Z,100705.22
2022-10-13T11:09:10.301Z,100691.50
2022-10-13T11:11:40.186Z,100709.03
2022-10-13T11:14:29.655Z,100691.13
2022-10-13T11:17:06.879Z,100706.28
2022-10-13T11:19:42.076Z,100685.63
2022-10-13T11:22:16.637Z,100703.31
2022-10-13T11:24:50.965Z,100698.25
2022-10-13T11:27:43.656Z,100690.97
2022-10-13T11:30:45.230Z,100706.31
2022-10-13T11:33:35.764Z,100706.56
2022-10-13T11:36:37.465Z,100701.16
2022-10-13T11:39:56.497Z,100702.44
2022-10-13T11:42:48.615Z,100691.84
2022-10-13T11:46:08.309Z,100675.22
2022-10-13T11:48:59.754Z,100695.63
2022-10-13T11:51:56.184Z,100693.31
2022-10-13T11:54:39.987Z,100696.47
2022-10-13T11:57:28.330Z,100677.28
2022-10-13T12:00:21.902Z,100688.34
2022-10-13T12:03:46.183Z,100663.75
2022-10-13T12:06:58.251Z,100688.09
2022-10-13T12:09:58.551Z,100663.59
2022-10-13T12:12:32.237Z,100672.81
2022-10-13T12:15:25.016Z,100692.22
2022-10-13T12:18:01.478Z,100661.34
2022-10-13T12:21:45.654Z,100652.63
2022-10-13T12:24:12.484Z,100666.00
2022-10-13T12:26:42.437Z,100687.63
2022-10-13T12:29:17.526Z,100659.22
2022-10-13T12:31:47.166Z,100660.97
2022-10-13T12:34:30.109Z,100663.16
2022-10-13T12:37:52.151Z,100655.78
2022-10-13T12:40:30.440Z,100656.53
2022-10-13T12:43:00.400Z,100676.78
2022-10-13T12:48:45.457Z,100675.00
2022-10-13T12:51:24.788Z,100670.19
2022-10-13T12:53:52.830Z,100694.28
2022-10-13T12:56:34.063Z,100682.97
2022-10-13T12:59:04.540Z,100673.31
2022-10-13T13:01:40.834Z,100673.28
2022-10-13T13:04:24.427Z,100683.59
2022-10-13T13:07:01.906Z,100672.03
2022-10-13T13:09:53.991Z,100673.81
2022-10-13T13:12:28.350Z,100667.56
2022-10-13T13:14:58.970Z,100697.63
2022-10-13T13:17:57.276Z,100650.19
2022-10-13T13:20:29.537Z,100673.75
2022-10-13T13:23:11.179Z,100676.38
2022-10-13T13:25:41.417Z,100665.31
2022-10-13T13:28:14.334Z,100680.13
2022-10-13T13:30:44.117Z,100696.50
2022-10-13T13:35:50.327Z,100671.75
2022-10-13T13:38:19.439Z,100668.72
2022-10-13T13:41:00.140Z,100675.00
2022-10-13T13:43:33.217Z,100690.88
2022-10-13T13:46:16.242Z,100670.13
2022-10-13T13:48:59.892Z,100683.34
2022-10-13T13:55:08.427Z,100718.91
2022-10-13T13:57:43.950Z,100702.91
2022-10-13T14:00:13.430Z,100701.69
2022-10-13T14:02:45.217Z,100702.19
2022-10-13T14:05:16.118Z,100695.63
2022-10-13T14:07:58.172Z,100679.44
2022-10-13T14:10:47.989Z,100672.75
2022-10-13T14:13:21.220Z,100692.00
2022-10-13T14:16:00.831Z,100684.84
2022-10-13T14:18:55.519Z,100712.69
2022-10-13T14:21:25.859Z,100694.69
2022-10-13T14:24:03.330Z,100728.63
2022-10-13T14:27:13.011Z,100715.38
2022-10-13T14:29:51.866Z,100702.19
2022-10-13T14:32:27.810Z,100700.69
2022-10-13T14:35:08.541Z,100713.16
2022-10-13T14:37:38.539Z,100718.03
2022-10-13T14:40:31.123Z,100710.19
2022-10-13T14:42:59.399Z,100747.47
2022-10-13T14:45:27.037Z,100750.13
2022-10-13T14:47:59.410Z,100704.81
2022-10-13T14:50:29.348Z,100710.25
2022-10-13T14:53:30.269Z,100697.53
2022-10-13T14:55:59.166Z,100719.44
2022-10-13T14:58:29.884Z,100736.63
2022-10-13T15:00:57.481Z,100721.72
2022-10-13T15:03:28.024Z,100722.13
2022-10-13T15:05:56.692Z,100722.16
2022-10-13T15:08:34.137Z,100751.25
2022-10-13T15:11:04.361Z,100735.66
2022-10-13T15:13:37.782Z,100719.53
2022-10-13T15:16:06.622Z,100731.78
2022-10-13T15:18:39.474Z,100740.03
2022-10-13T15:21:07.111Z,100730.38
2022-10-13T15:23:35.674Z,100765.59
2022-10-13T15:26:18.390Z,100739.09
2022-10-13T15:28:49.464Z,100767.47
2022-10-13T15:31:18.584Z,100732.22
2022-10-13T15:33:47.993Z,100779.44
2022-10-13T15:36:15.290Z,100745.91
2022-10-13T15:38:42.678Z,100765.88
2022-10-13T15:41:11.733Z,100770.63
2022-10-13T15:43:39.659Z,100780.13
2022-10-13T15:46:10.844Z,100766.97
2022-10-13T15:48:42.104Z,100767.16
2022-10-13T15:51:14.664Z,100785.53
2022-10-13T15:53:44.675Z,100757.13
2022-10-13T15:56:12.962Z,100757.22
2022-10-13T15:58:40.456Z,100760.97
2022-10-13T16:01:13.335Z,100776.91
2022-10-13T16:03:44.021Z,100727.19
2022-10-13T16:06:13.052Z,100753.81
2022-10-13T16:08:44.095Z,100765.56
2022-10-13T16:11:14.302Z,100744.75
2022-10-13T16:13:47.117Z,100746.59
2022-10-13T16:16:15.813Z,100779.53
2022-10-13T16:18:44.282Z,100738.94
2022-10-13T16:21:18.309Z,100760.81
2022-10-13T16:23:47.812Z,100767.47
2022-10-13T16:26:17.723Z,100730.81
2022-10-13T16:28:55.573Z,100747.19
2022-10-13T16:31:24.979Z,100770.41
2022-10-13T16:33:52.579Z,100747.09
2022-10-13T16:36:20.360Z,100774.81
2022-10-13T16:38:53.763Z,100771.50
2022-10-13T16:41:21.277Z,100739.59
2022-10-13T16:43:49.126Z,100777.25
2022-10-13T16:46:19.274Z,100784.31
2022-10-13T16:48:47.598Z,100757.06
2022-10-13T16:51:17.766Z,100756.34
2022-10-13T16:54:01.186Z,100777.50
2022-10-13T16:56:53.933Z,100763.34
2022-10-13T16:59:48.440Z,100759.06
2022-10-13T17:02:19.562Z,100764.69
2022-10-13T17:04:58.362Z,100784.75
2022-10-13T17:07:31.928Z,100802.44
2022-10-13T17:10:09.963Z,100780.75
2022-10-13T17:12:47.192Z,100746.41
2022-10-13T17:15:20.290Z,100777.16
2022-10-13T17:18:07.203Z,100743.03
2022-10-13T17:21:03.013Z,100787.72
2022-10-13T17:23:48.180Z,100735.34
2022-10-13T17:26:30.452Z,100789.31
2022-10-13T17:29:33.051Z,100758.47
2022-10-13T17:32:33.393Z,100761.22
2022-10-13T17:35:03.817Z,100727.44
2022-10-13T17:37:39.364Z,100745.38
2022-10-13T17:40:20.230Z,100772.22
2022-10-13T17:42:58.641Z,100792.66
2022-10-13T17:45:41.599Z,100787.53
2022-10-13T17:48:22.960Z,100756.44
2022-10-13T17:51:06.227Z,100752.50
2022-10-13T17:53:38.680Z,100750.69
2022-10-13T17:56:34.893Z,100737.97
2022-10-13T17:59:21.766Z,100766.78
2022-10-13T18:02:03.400Z,100758.00
2022-10-13T18:04:43.444Z,100781.25
2022-10-13T18:07:14.089Z,100767.81
2022-10-13T18:10:03.318Z,100768.22
2022-10-13T18:12:33.924Z,100767.44
2022-10-13T18:16:46.738Z,100779.16
2022-10-13T18:18:47.782Z,100773.56
2022-10-13T18:21:36.439Z,100789.41
2022-10-13T18:24:57.387Z,100819.44
2022-10-13T18:41:13.962Z,100757.09
2022-10-13T18:52:41.705Z,100802.63
2022-10-13T18:55:09.836Z,100781.28
2022-10-13T18:57:38.410Z,100780.91
2022-10-13T19:00:08.043Z,100759.28
2022-10-13T19:02:37.655Z,100808.91
2022-10-13T19:05:08.712Z,100795.38
2022-10-13T19:07:39.079Z,100762.78
2022-10-13T19:10:07.571Z,100793.84
2022-10-13T19:12:38.130Z,100826.16
2022-10-13T19:15:06.224Z,100819.25
2022-10-13T19:17:51.689Z,100804.00
2022-10-13T19:20:29.626Z,100783.28
2022-10-13T19:23:01.017Z,100797.97
2022-10-13T19:25:28.656Z,100753.28
2022-10-13T19:29:03.094Z,100755.19
2022-10-13T19:31:51.493Z,100785.31
2022-10-13T19:34:18.795Z,100809.22
2022-10-13T19:36:46.969Z,100784.91
2022-10-13T19:39:23.589Z,100805.50
2022-10-13T19:41:53.970Z,100791.94
2022-10-13T19:44:23.163Z,100815.09
2022-10-13T19:46:52.663Z,100772.19
2022-10-13T19:49:23.625Z,100801.31
2022-10-13T19:51:53.813Z,100830.88
2022-10-13T19:54:21.991Z,100781.03
2022-10-13T19:56:51.146Z,100800.03
2022-10-13T19:59:21.248Z,100779.13
2022-10-13T20:01:48.913Z,100819.50
2022-10-13T20:04:18.747Z,100801.44
2022-10-13T20:06:47.412Z,100784.00
2022-10-13T20:09:15.710Z,100777.22
2022-10-13T20:11:49.529Z,100800.44
2022-10-13T20:14:18.077Z,100787.53
2022-10-13T20:16:45.690Z,100783.59
2022-10-13T20:19:16.704Z,100810.25
2022-10-13T20:21:48.315Z,100781.06
2022-10-13T20:24:16.086Z,100769.72
2022-10-13T20:26:43.531Z,100794.69
2022-10-13T20:29:15.716Z,100805.97
2022-10-13T20:31:45.528Z,100778.59
2022-10-13T20:34:13.269Z,100803.78
2022-10-13T20:36:40.953Z,100766.56
2022-10-13T20:39:10.928Z,100802.16
2022-10-13T20:41:38.271Z,100807.44
2022-10-13T20:44:05.567Z,100787.44
2022-10-13T20:46:34.267Z,100808.34
2022-10-13T20:49:10.867Z,100793.78
2022-10-13T20:51:41.344Z,100813.16
2022-10-13T20:54:09.704Z,100803.91
2022-10-13T20:56:37.144Z,100803.03
2022-10-13T21:03:05.659Z,100818.00
2022-10-13T21:05:33.163Z,100807.13
2022-10-13T21:08:01.534Z,100802.09
2022-10-13T21:10:30.365Z,100802.34
2022-10-13T21:12:57.688Z,100817.03
2022-10-13T21:15:27.188Z,100816.31
2022-10-13T21:17:55.913Z,100825.75
2022-10-13T21:20:23.166Z,100803.72
2022-10-13T21:22:51.168Z,100808.94
2022-10-13T21:25:19.584Z,100835.75
2022-10-13T21:27:51.713Z,100816.13
2022-10-13T21:30:19.467Z,100823.66
2022-10-13T21:32:47.492Z,100822.13
2022-10-13T21:35:15.561Z,100827.28
2022-10-13T21:37:42.651Z,100831.50
2022-10-13T21:40:10.494Z,100802.19
2022-10-13T21:42:37.822Z,100826.25
2022-10-13T21:45:05.539Z,100795.41
2022-10-13T21:47:59.799Z,100831.31
2022-10-13T21:50:28.553Z,100797.16
2022-10-13T21:52:55.846Z,100825.47
2022-10-13T21:55:25.951Z,100813.50
2022-10-13T21:57:54.655Z,100818.81
2022-10-13T22:00:22.657Z,100828.38
2022-10-13T22:02:52.442Z,100809.53
2022-10-13T22:05:22.235Z,100835.41
2022-10-13T22:07:55.289Z,100838.81
2022-10-13T22:10:22.487Z,100837.53
2022-10-13T22:12:49.755Z,100829.72
2022-10-13T22:15:20.110Z,100841.63
2022-10-13T22:17:51.959Z,100840.97
2022-10-13T22:20:20.208Z,100835.88
2022-10-13T22:22:47.748Z,100810.38
2022-10-13T22:25:15.398Z,100837.03
2022-10-13T22:27:42.872Z,100800.16
2022-10-13T22:30:10.873Z,100824.25
2022-10-13T22:32:38.136Z,100853.63
2022-10-13T22:35:05.773Z,100852.22
2022-10-13T22:37:33.974Z,100871.88
2022-10-13T22:40:01.495Z,100830.56
2022-10-13T22:42:28.901Z,100852.03
2022-10-13T22:44:58.084Z,100859.72
2022-10-13T22:47:26.809Z,100843.88
2022-10-13T22:49:54.378Z,100863.78
2022-10-13T22:52:21.678Z,100831.19
2022-10-13T22:54:49.557Z,100848.47
2022-10-13T22:57:16.816Z,100827.91
2022-10-13T22:59:44.468Z,100853.59
2022-10-13T23:02:11.910Z,100850.94
2022-10-13T23:04:40.648Z,100863.28
2022-10-13T23:07:07.823Z,100841.69
2022-10-13T23:09:36.107Z,100846.16
2022-10-13T23:12:03.621Z,100843.72
2022-10-13T23:14:33.509Z,100853.81
2022-10-13T23:17:00.686Z,100886.56
2022-10-13T23:19:28.412Z,100855.47
2022-10-13T23:21:56.550Z,100865.88
2022-10-13T23:24:23.727Z,100881.41
2022-10-13T23:26:50.997Z,100837.66
2022-10-13T23:29:19.583Z,100845.53
2022-10-13T23:31:47.019Z,100862.00
2022-10-13T23:34:14.386Z,100857.44
2022-10-13T23:36:41.646Z,100870.34
2022-10-13T23:39:11.596Z,100830.13
2022-10-13T23:41:39.208Z,100847.31
2022-10-13T23:44:07.416Z,100832.81
2022-10-13T23:46:35.458Z,100825.88
2022-10-13T23:49:04.093Z,100873.88
2022-10-13T23:51:32.490Z,100874.75
2022-10-13T23:54:00.018Z,100857.28
2022-10-13T23:56:27.274Z,100869.34
2022-10-13T23:58:56.710Z,100866.28
